createdAt,value
2019-05-31T00:00:04.802Z,17.64
2019-05-31T00:00:45.380Z,17.6
2019-05-31T00:01:25.962Z,17.56
2019-05-31T00:02:06.513Z,17.64
2019-05-31T00:02:47.071Z,17.54
2019-05-31T00:03:27.639Z,17.6
2019-05-31T00:04:08.199Z,17.63
2019-05-31T00:04:48.763Z,17.59
2019-05-31T00:05:29.308Z,17.63
2019-05-31T00:06:09.874Z,17.57
2019-05-31T00:06:50.439Z,17.52
2019-05-31T00:07:31.042Z,17.56
2019-05-31T00:08:11.839Z,17.46
2019-05-31T00:08:53.528Z,17.49
2019-05-31T00:09:32.964Z,17.46
2019-05-31T00:10:13.523Z,17.45
2019-05-31T00:10:54.083Z,17.52
2019-05-31T00:11:34.648Z,17.48
2019-05-31T00:12:15.205Z,17.46
2019-05-31T00:12:56.042Z,17.46
2019-05-31T00:13:36.323Z,17.45
2019-05-31T00:14:20.651Z,17.42
2019-05-31T00:14:58.381Z,17.45
2019-05-31T00:15:38.054Z,17.44
2019-05-31T00:16:18.620Z,17.41
2019-05-31T00:16:59.185Z,17.34
2019-05-31T00:17:39.733Z,17.39
2019-05-31T00:18:20.304Z,17.33
2019-05-31T00:19:01.055Z,17.34
2019-05-31T00:19:41.434Z,17.38
2019-05-31T00:20:21.997Z,17.29
2019-05-31T00:21:03.418Z,17.31
2019-05-31T00:21:43.137Z,17.34
2019-05-31T00:22:23.705Z,17.29
2019-05-31T00:23:04.265Z,17.31
2019-05-31T00:23:44.823Z,17.33
2019-05-31T00:24:25.420Z,17.34
2019-05-31T00:25:06.403Z,17.3
2019-05-31T00:25:46.536Z,17.29
2019-05-31T00:26:27.099Z,17.29
2019-05-31T00:27:07.664Z,17.26
2019-05-31T00:27:48.230Z,17.31
2019-05-31T00:28:28.781Z,17.36
2019-05-31T00:29:09.352Z,17.3
2019-05-31T00:29:49.920Z,17.29
2019-05-31T00:30:30.501Z,17.39
2019-05-31T00:31:11.060Z,17.34
2019-05-31T00:31:51.628Z,17.31
2019-05-31T00:32:32.220Z,17.27
2019-05-31T00:33:12.786Z,17.26
2019-05-31T00:33:53.359Z,17.27
2019-05-31T00:34:33.925Z,17.26
2019-05-31T00:35:14.490Z,17.31
2019-05-31T00:35:55.467Z,17.34
2019-05-31T00:36:35.643Z,17.26
2019-05-31T00:37:16.207Z,17.3
2019-05-31T00:37:57.675Z,17.3
2019-05-31T00:38:37.360Z,17.22
2019-05-31T00:39:17.922Z,17.26
2019-05-31T00:39:58.480Z,17.15
2019-05-31T00:40:39.072Z,17.19
2019-05-31T00:41:19.638Z,17.19
2019-05-31T00:42:01.352Z,17.29
2019-05-31T00:42:40.764Z,17.2
2019-05-31T00:43:21.311Z,17.19
2019-05-31T00:44:01.867Z,17.22
2019-05-31T00:44:42.429Z,17.2
2019-05-31T00:45:22.996Z,17.27
2019-05-31T00:46:03.773Z,17.19
2019-05-31T00:46:44.128Z,17.27
2019-05-31T00:47:24.702Z,17.16
2019-05-31T00:48:05.887Z,17.22
2019-05-31T00:48:45.826Z,17.24
2019-05-31T00:49:26.394Z,17.22
2019-05-31T00:50:06.973Z,17.24
2019-05-31T00:50:47.548Z,17.24
2019-05-31T00:51:28.103Z,17.24
2019-05-31T00:52:08.670Z,17.24
2019-05-31T00:52:49.234Z,17.06
2019-05-31T00:53:29.799Z,17.09
2019-05-31T00:54:10.357Z,17.19
2019-05-31T00:54:50.913Z,17.19
2019-05-31T00:55:31.477Z,17.11
2019-05-31T00:56:12.045Z,17.14
2019-05-31T00:56:52.610Z,17.16
2019-05-31T00:57:33.169Z,17.16
2019-05-31T00:58:13.737Z,17.12
2019-05-31T00:58:54.302Z,17.14
2019-05-31T00:59:34.859Z,17.14
2019-05-31T01:00:15.422Z,17.05
2019-05-31T01:00:56.820Z,17.06
2019-05-31T01:01:36.555Z,17.04
2019-05-31T01:02:17.118Z,17.08
2019-05-31T01:02:58.821Z,17.05
2019-05-31T01:03:38.243Z,17.06
2019-05-31T01:04:18.817Z,17.06
2019-05-31T01:04:59.367Z,17.02
2019-05-31T01:05:39.956Z,17.01
2019-05-31T01:06:20.614Z,17.04
2019-05-31T01:07:01.289Z,16.99
2019-05-31T01:07:41.742Z,17.02
2019-05-31T01:08:22.292Z,16.97
2019-05-31T01:09:03.432Z,16.99
2019-05-31T01:09:43.406Z,17.02
2019-05-31T01:10:23.961Z,16.96
2019-05-31T01:11:05.610Z,16.97
2019-05-31T01:11:45.081Z,16.99
2019-05-31T01:12:25.645Z,16.97
2019-05-31T01:13:06.223Z,16.94
2019-05-31T01:13:46.790Z,16.99
2019-05-31T01:14:27.374Z,16.9
2019-05-31T01:15:08.295Z,16.96
2019-05-31T01:15:48.515Z,16.9
2019-05-31T01:16:29.079Z,16.97
2019-05-31T01:17:12.810Z,16.9
2019-05-31T01:17:50.207Z,16.93
2019-05-31T01:18:30.813Z,16.9
2019-05-31T01:19:11.388Z,16.87
2019-05-31T01:19:51.953Z,16.89
2019-05-31T01:20:32.509Z,16.91
2019-05-31T01:21:13.069Z,16.96
2019-05-31T01:21:53.632Z,16.84
2019-05-31T01:22:34.197Z,16.89
2019-05-31T01:23:14.810Z,16.86
2019-05-31T01:23:55.373Z,16.89
2019-05-31T01:24:35.937Z,16.86
2019-05-31T01:25:16.499Z,16.79
2019-05-31T01:25:57.059Z,16.78
2019-05-31T01:26:37.629Z,16.83
2019-05-31T01:27:18.193Z,16.86
2019-05-31T01:27:59.283Z,16.96
2019-05-31T01:28:39.328Z,16.76
2019-05-31T01:29:19.896Z,16.86
2019-05-31T01:30:01.861Z,16.86
2019-05-31T01:30:41.019Z,16.83
2019-05-31T01:31:21.600Z,16.78
2019-05-31T01:32:02.536Z,16.79
2019-05-31T01:32:42.799Z,16.79
2019-05-31T01:33:23.355Z,16.76
2019-05-31T01:34:04.581Z,16.83
2019-05-31T01:34:44.535Z,16.79
2019-05-31T01:35:25.113Z,16.83
2019-05-31T01:36:06.588Z,16.76
2019-05-31T01:36:46.226Z,16.83
2019-05-31T01:37:26.791Z,16.76
2019-05-31T01:38:08.421Z,16.81
2019-05-31T01:38:47.923Z,16.79
2019-05-31T01:39:28.509Z,16.74
2019-05-31T01:40:09.077Z,16.76
2019-05-31T01:40:49.632Z,16.78
2019-05-31T01:41:30.188Z,16.71
2019-05-31T01:42:11.135Z,16.71
2019-05-31T01:42:51.337Z,16.69
2019-05-31T01:43:31.936Z,16.72
2019-05-31T01:44:12.532Z,16.69
2019-05-31T01:45:07.287Z,16.69
2019-05-31T01:45:33.686Z,16.69
2019-05-31T01:46:14.254Z,16.78
2019-05-31T01:46:54.807Z,16.65
2019-05-31T01:47:35.370Z,16.68
2019-05-31T01:48:15.930Z,16.6
2019-05-31T01:48:56.513Z,16.69
2019-05-31T01:49:37.060Z,16.68
2019-05-31T01:50:17.630Z,16.68
2019-05-31T01:50:58.202Z,16.66
2019-05-31T01:51:38.764Z,16.64
2019-05-31T01:52:19.327Z,16.69
2019-05-31T01:52:59.895Z,16.6
2019-05-31T01:53:40.459Z,16.65
2019-05-31T01:54:21.022Z,16.61
2019-05-31T01:55:02.227Z,16.68
2019-05-31T01:55:42.161Z,16.66
2019-05-31T01:56:22.729Z,16.64
2019-05-31T01:57:04.218Z,16.56
2019-05-31T01:57:43.855Z,16.54
2019-05-31T01:58:24.430Z,16.53
2019-05-31T01:59:04.991Z,16.58
2019-05-31T01:59:45.551Z,16.56
2019-05-31T02:00:26.143Z,16.58
2019-05-31T02:01:07.500Z,16.6
2019-05-31T02:01:47.289Z,16.56
2019-05-31T02:02:27.876Z,16.54
2019-05-31T02:03:08.470Z,16.57
2019-05-31T02:03:49.025Z,16.58
2019-05-31T02:04:29.589Z,16.58
2019-05-31T02:05:10.544Z,16.51
2019-05-31T02:05:50.715Z,16.51
2019-05-31T02:06:31.263Z,16.54
2019-05-31T02:07:12.625Z,16.5
2019-05-31T02:07:52.399Z,16.5
2019-05-31T02:08:33.204Z,16.53
2019-05-31T02:09:13.761Z,16.46
2019-05-31T02:09:54.343Z,16.53
2019-05-31T02:10:34.924Z,16.46
2019-05-31T02:11:15.479Z,16.51
2019-05-31T02:11:56.048Z,16.5
2019-05-31T02:12:36.606Z,16.56
2019-05-31T02:13:17.176Z,16.49
2019-05-31T02:13:57.734Z,16.42
2019-05-31T02:14:38.290Z,16.46
2019-05-31T02:15:31.143Z,16.51
2019-05-31T02:15:59.434Z,16.46
2019-05-31T02:16:40.012Z,16.49
2019-05-31T02:17:20.592Z,16.43
2019-05-31T02:18:01.169Z,16.41
2019-05-31T02:18:41.712Z,16.41
2019-05-31T02:19:22.282Z,16.38
2019-05-31T02:20:02.840Z,16.39
2019-05-31T02:20:43.429Z,16.38
2019-05-31T02:21:23.989Z,16.41
2019-05-31T02:22:04.590Z,16.35
2019-05-31T02:22:45.124Z,16.39
2019-05-31T02:23:25.684Z,16.38
2019-05-31T02:24:07.009Z,16.39
2019-05-31T02:24:46.845Z,16.35
2019-05-31T02:25:27.389Z,16.38
2019-05-31T02:26:09.052Z,16.36
2019-05-31T02:26:48.511Z,16.36
2019-05-31T02:27:29.071Z,16.36
2019-05-31T02:28:09.641Z,16.35
2019-05-31T02:28:50.199Z,16.33
2019-05-31T02:29:30.772Z,16.32
2019-05-31T02:30:14.488Z,16.32
2019-05-31T02:30:51.938Z,16.29
2019-05-31T02:31:32.501Z,16.29
2019-05-31T02:32:13.706Z,16.26
2019-05-31T02:32:53.654Z,16.24
2019-05-31T02:33:34.201Z,16.36
2019-05-31T02:34:15.034Z,16.35
2019-05-31T02:34:55.345Z,16.32
2019-05-31T02:35:35.911Z,16.31
2019-05-31T02:36:17.421Z,16.36
2019-05-31T02:36:57.048Z,16.23
2019-05-31T02:37:37.606Z,16.32
2019-05-31T02:38:18.424Z,16.2
2019-05-31T02:38:58.751Z,16.24
2019-05-31T02:39:39.312Z,16.26
2019-05-31T02:40:19.897Z,16.24
2019-05-31T02:41:00.444Z,16.26
2019-05-31T02:41:41.013Z,16.23
2019-05-31T02:42:21.584Z,16.24
2019-05-31T02:43:02.135Z,16.24
2019-05-31T02:43:42.698Z,16.32
2019-05-31T02:44:23.314Z,16.31
2019-05-31T02:45:03.888Z,16.23
2019-05-31T02:45:47.375Z,16.26
2019-05-31T02:46:25.014Z,16.23
2019-05-31T02:47:05.589Z,16.26
2019-05-31T02:47:46.139Z,16.33
2019-05-31T02:48:26.700Z,16.17
2019-05-31T02:49:07.995Z,16.17
2019-05-31T02:49:47.826Z,16.21
2019-05-31T02:50:28.393Z,16.23
2019-05-31T02:51:10.593Z,16.23
2019-05-31T02:51:49.508Z,16.17
2019-05-31T02:52:30.076Z,16.21
2019-05-31T02:53:12.419Z,16.2
2019-05-31T02:53:51.280Z,16.13
2019-05-31T02:54:31.854Z,16.17
2019-05-31T02:55:12.746Z,16.17
2019-05-31T02:55:52.965Z,16.15
2019-05-31T02:56:33.521Z,16.08
2019-05-31T02:57:15.159Z,16.16
2019-05-31T02:57:54.657Z,16.09
2019-05-31T02:58:35.219Z,16.08
2019-05-31T02:59:16.919Z,16.12
2019-05-31T02:59:56.337Z,16.05
2019-05-31T03:00:36.909Z,16.13
2019-05-31T03:01:18.856Z,16.04
2019-05-31T03:01:58.048Z,16.12
2019-05-31T03:02:38.612Z,16.09
2019-05-31T03:03:20.288Z,16.13
2019-05-31T03:03:59.724Z,16.09
2019-05-31T03:04:40.302Z,16.08
2019-05-31T03:05:21.536Z,16.02
2019-05-31T03:06:01.431Z,16.05
2019-05-31T03:06:41.993Z,16.1
2019-05-31T03:07:22.554Z,16.09
2019-05-31T03:08:03.119Z,16.05
2019-05-31T03:08:44.032Z,16.04
2019-05-31T03:09:24.607Z,16.04
2019-05-31T03:10:05.163Z,16.05
2019-05-31T03:10:45.727Z,16.08
2019-05-31T03:11:26.320Z,16.05
2019-05-31T03:12:06.903Z,16
2019-05-31T03:12:47.466Z,16.05
2019-05-31T03:13:28.023Z,16.05
2019-05-31T03:14:08.577Z,16.04
2019-05-31T03:14:49.241Z,16.09
2019-05-31T03:15:29.793Z,16.01
2019-05-31T03:16:11.155Z,16
2019-05-31T03:16:50.956Z,16.09
2019-05-31T03:17:31.519Z,15.95
2019-05-31T03:18:13.260Z,16.02
2019-05-31T03:18:52.670Z,16
2019-05-31T03:19:33.223Z,16.01
2019-05-31T03:20:13.781Z,16.15
2019-05-31T03:20:54.346Z,16.1
2019-05-31T03:21:34.899Z,16.01
2019-05-31T03:22:16.415Z,15.98
2019-05-31T03:22:56.016Z,15.98
2019-05-31T03:23:36.581Z,16.04
2019-05-31T03:24:18.643Z,16.01
2019-05-31T03:24:57.833Z,16.09
2019-05-31T03:25:38.388Z,16
2019-05-31T03:26:20.662Z,16
2019-05-31T03:26:59.525Z,16.05
2019-05-31T03:27:40.103Z,16.02
2019-05-31T03:28:22.172Z,15.98
2019-05-31T03:29:01.219Z,15.98
2019-05-31T03:29:41.786Z,16
2019-05-31T03:30:31.463Z,16.08
2019-05-31T03:31:02.954Z,16.01
2019-05-31T03:31:43.497Z,16.08
2019-05-31T03:32:33.574Z,16.02
2019-05-31T03:33:04.689Z,16.02
2019-05-31T03:33:45.243Z,16
2019-05-31T03:34:30.980Z,16
2019-05-31T03:35:06.373Z,16.01
2019-05-31T03:35:46.941Z,16
2019-05-31T03:36:35.102Z,16.02
2019-05-31T03:37:08.107Z,15.98
2019-05-31T03:37:48.648Z,16
2019-05-31T03:38:29.206Z,15.97
2019-05-31T03:39:09.786Z,16.09
2019-05-31T03:39:50.336Z,15.95
2019-05-31T03:40:30.893Z,16.08
2019-05-31T03:41:11.454Z,16
2019-05-31T03:41:52.018Z,16.01
2019-05-31T03:42:32.582Z,16.05
2019-05-31T03:43:14.796Z,16.05
2019-05-31T03:43:53.726Z,16.02
2019-05-31T03:44:34.290Z,15.98
2019-05-31T03:45:15.413Z,16.09
2019-05-31T03:45:55.415Z,16.13
2019-05-31T03:46:41.374Z,16.12
2019-05-31T03:47:16.971Z,16.02
2019-05-31T03:47:57.143Z,16.1
2019-05-31T03:48:37.672Z,16.09
2019-05-31T03:49:18.898Z,16.09
2019-05-31T03:49:58.820Z,16.1
2019-05-31T03:50:39.387Z,16.12
2019-05-31T03:52:52.236Z,16.13
2019-05-31T03:53:32.813Z,16.15
2019-05-31T03:54:15.027Z,16.09
2019-05-31T03:54:53.933Z,16.08
2019-05-31T03:55:34.521Z,16.09
2019-05-31T03:56:15.170Z,16.24
2019-05-31T03:56:55.649Z,16.17
2019-05-31T03:57:36.232Z,16.23
2019-05-31T03:58:17.492Z,16.15
2019-05-31T03:58:57.358Z,16.16
2019-05-31T03:59:37.911Z,16.2
2019-05-31T04:00:19.635Z,16.17
2019-05-31T04:00:59.047Z,16.24
2019-05-31T04:01:39.591Z,16.2
2019-05-31T04:02:21.464Z,16.26
2019-05-31T04:03:00.760Z,16.21
2019-05-31T04:03:41.335Z,16.26
2019-05-31T04:04:22.423Z,16.24
2019-05-31T04:05:02.457Z,16.17
2019-05-31T04:05:43.040Z,16.21
2019-05-31T04:06:23.869Z,16.23
2019-05-31T04:07:04.169Z,16.21
2019-05-31T04:07:44.731Z,16.31
2019-05-31T04:08:27.758Z,16.24
2019-05-31T04:09:05.918Z,16.26
2019-05-31T04:09:46.476Z,16.29
2019-05-31T04:10:27.060Z,16.39
2019-05-31T04:11:07.663Z,16.31
2019-05-31T04:11:48.219Z,16.32
2019-05-31T04:12:28.783Z,16.33
2019-05-31T04:13:09.344Z,16.36
2019-05-31T04:13:49.907Z,16.36
2019-05-31T04:14:30.460Z,16.39
2019-05-31T04:15:11.025Z,16.41
2019-05-31T04:15:51.589Z,16.5
2019-05-31T04:16:48.108Z,16.41
2019-05-31T04:17:12.735Z,16.47
2019-05-31T04:17:53.287Z,16.47
2019-05-31T04:18:35.056Z,16.47
2019-05-31T04:19:15.276Z,16.49
2019-05-31T04:19:55.021Z,16.49
2019-05-31T04:20:35.593Z,16.53
2019-05-31T04:21:17.589Z,16.47
2019-05-31T04:21:56.708Z,16.56
2019-05-31T04:22:37.278Z,16.49
2019-05-31T04:23:19.723Z,16.51
2019-05-31T04:23:58.436Z,16.49
2019-05-31T04:24:38.993Z,16.47
2019-05-31T04:25:20.964Z,16.49
2019-05-31T04:26:00.146Z,16.5
2019-05-31T04:26:40.714Z,16.51
2019-05-31T04:27:22.811Z,16.54
2019-05-31T04:28:01.847Z,16.56
2019-05-31T04:28:42.427Z,16.47
2019-05-31T04:29:24.127Z,16.58
2019-05-31T04:30:03.623Z,16.54
2019-05-31T04:30:44.180Z,16.54
2019-05-31T04:31:26.221Z,16.56
2019-05-31T04:32:05.433Z,16.54
2019-05-31T04:32:46.026Z,16.57
2019-05-31T04:35:59.987Z,16.61
2019-05-31T04:36:40.610Z,16.65
2019-05-31T04:37:22.532Z,16.6
2019-05-31T04:38:01.774Z,16.64
2019-05-31T04:38:42.381Z,16.58
2019-05-31T04:39:24.170Z,16.71
2019-05-31T04:40:03.527Z,16.72
2019-05-31T04:40:44.093Z,16.68
2019-05-31T04:41:26.698Z,16.71
2019-05-31T04:42:05.235Z,16.72
2019-05-31T04:42:45.797Z,16.74
2019-05-31T04:43:26.704Z,16.78
2019-05-31T04:44:06.904Z,16.79
2019-05-31T04:44:47.502Z,16.69
2019-05-31T04:45:28.082Z,16.83
2019-05-31T04:46:08.701Z,16.78
2019-05-31T04:47:06.374Z,16.79
2019-05-31T04:47:29.858Z,16.76
2019-05-31T04:48:10.424Z,16.84
2019-05-31T04:48:51.019Z,16.84
2019-05-31T04:49:31.584Z,16.86
2019-05-31T04:50:12.159Z,16.84
2019-05-31T04:50:52.718Z,16.83
2019-05-31T04:51:33.283Z,16.91
2019-05-31T04:52:13.857Z,16.93
2019-05-31T04:55:28.269Z,16.99
2019-05-31T04:56:08.861Z,16.97
2019-05-31T04:56:49.431Z,17.02
2019-05-31T04:57:29.974Z,16.99
2019-05-31T04:58:10.561Z,17.02
2019-05-31T04:58:51.133Z,17.05
2019-05-31T04:59:31.696Z,17.04
2019-05-31T05:00:12.260Z,17.05
2019-05-31T05:00:52.866Z,17.09
2019-05-31T05:01:33.484Z,17.09
2019-05-31T05:02:14.051Z,17.11
2019-05-31T05:02:54.595Z,17.09
2019-05-31T05:03:35.159Z,17.09
2019-05-31T05:04:16.287Z,17.09
2019-05-31T05:04:56.346Z,17.15
2019-05-31T05:05:36.924Z,17.22
2019-05-31T05:06:18.425Z,17.16
2019-05-31T05:06:58.137Z,17.22
2019-05-31T05:07:38.753Z,17.23
2019-05-31T05:08:20.594Z,17.23
2019-05-31T05:09:00.304Z,17.3
2019-05-31T05:09:40.919Z,17.26
2019-05-31T05:10:22.857Z,17.31
2019-05-31T05:11:02.137Z,17.33
2019-05-31T05:11:42.713Z,17.31
2019-05-31T05:12:24.575Z,17.38
2019-05-31T05:13:03.868Z,17.33
2019-05-31T05:13:44.460Z,17.36
2019-05-31T05:14:25.059Z,17.38
2019-05-31T05:15:05.690Z,17.41
2019-05-31T05:15:46.284Z,17.48
2019-05-31T05:16:27.186Z,17.46
2019-05-31T05:17:07.458Z,17.49
2019-05-31T05:17:48.032Z,17.63
2019-05-31T05:18:30.070Z,17.63
2019-05-31T05:19:09.201Z,17.54
2019-05-31T05:22:23.168Z,17.71
2019-05-31T05:23:03.749Z,17.82
2019-05-31T05:23:44.339Z,17.82
2019-05-31T05:24:25.132Z,17.78
2019-05-31T05:25:05.498Z,17.74
2019-05-31T05:25:49.242Z,17.8
2019-05-31T05:26:27.393Z,17.85
2019-05-31T05:27:07.272Z,17.83
2019-05-31T05:27:47.945Z,17.83
2019-05-31T05:28:28.557Z,17.87
2019-05-31T05:29:09.132Z,17.9
2019-05-31T05:29:49.697Z,17.9
2019-05-31T05:30:30.278Z,17.95
2019-05-31T05:31:10.895Z,17.92
2019-05-31T05:31:51.696Z,17.94
2019-05-31T05:32:32.270Z,17.9
2019-05-31T05:33:12.841Z,17.94
2019-05-31T05:33:53.430Z,17.97
2019-05-31T05:34:34.007Z,18
2019-05-31T05:35:14.607Z,17.98
2019-05-31T05:35:55.272Z,17.95
2019-05-31T05:36:35.881Z,17.94
2019-05-31T05:37:16.441Z,17.97
2019-05-31T05:37:57.054Z,18.03
2019-05-31T05:38:37.647Z,18.01
2019-05-31T05:39:18.540Z,17.98
2019-05-31T05:39:58.817Z,18.04
2019-05-31T05:40:39.395Z,18.04
2019-05-31T05:41:19.982Z,18.01
2019-05-31T05:42:00.548Z,18.01
2019-05-31T05:42:41.150Z,17.98
2019-05-31T05:43:22.607Z,18.01
2019-05-31T05:44:02.309Z,18.05
2019-05-31T05:44:43.106Z,18.01
2019-05-31T05:45:23.752Z,18
2019-05-31T05:46:04.333Z,18.03
2019-05-31T05:46:44.915Z,17.95
2019-05-31T05:47:25.530Z,17.94
2019-05-31T05:48:06.196Z,17.92
2019-05-31T05:48:46.775Z,17.9
2019-05-31T05:49:27.803Z,17.85
2019-05-31T05:50:08.214Z,17.83
2019-05-31T05:50:48.774Z,17.89
2019-05-31T05:51:30.147Z,17.87
2019-05-31T05:52:10.048Z,17.94
2019-05-31T05:52:50.635Z,17.9
2019-05-31T05:53:31.275Z,17.87
2019-05-31T05:54:11.824Z,17.9
2019-05-31T05:54:52.402Z,17.82
2019-05-31T05:55:33.128Z,17.85
2019-05-31T05:56:13.829Z,17.9
2019-05-31T05:56:54.590Z,17.86
2019-05-31T05:57:35.186Z,17.92
2019-05-31T05:58:15.766Z,17.86
2019-05-31T05:58:56.322Z,17.89
2019-05-31T05:59:36.902Z,17.9
2019-05-31T06:00:17.469Z,17.86
2019-05-31T06:00:58.049Z,17.9
2019-05-31T06:01:38.605Z,17.86
2019-05-31T06:02:19.186Z,17.9
2019-05-31T06:03:01.016Z,17.89
2019-05-31T06:03:40.339Z,17.89
2019-05-31T06:04:21.720Z,17.97
2019-05-31T06:05:01.510Z,17.87
2019-05-31T06:05:42.063Z,17.92
2019-05-31T06:06:23.998Z,17.87
2019-05-31T06:07:03.225Z,17.95
2019-05-31T06:07:43.782Z,17.95
2019-05-31T06:08:24.603Z,18
2019-05-31T06:09:05.168Z,18
2019-05-31T06:09:45.736Z,17.94
2019-05-31T06:10:26.638Z,17.92
2019-05-31T06:11:06.879Z,18
2019-05-31T06:11:47.445Z,17.89
2019-05-31T06:12:29.003Z,17.95
2019-05-31T06:13:08.573Z,17.95
2019-05-31T06:13:49.130Z,17.92
2019-05-31T06:14:30.437Z,17.98
2019-05-31T06:15:10.275Z,17.94
2019-05-31T06:15:50.836Z,17.98
2019-05-31T06:16:49.429Z,17.95
2019-05-31T06:17:12.162Z,18.03
2019-05-31T06:18:00.593Z,18.03
2019-05-31T06:18:33.268Z,18.03
2019-05-31T06:19:13.862Z,18.04
2019-05-31T06:19:54.429Z,18.07
2019-05-31T06:20:35.008Z,18.01
2019-05-31T06:21:15.593Z,18.05
2019-05-31T06:21:56.156Z,18.1
2019-05-31T06:22:37.177Z,18.1
2019-05-31T06:23:17.294Z,18.13
2019-05-31T06:23:57.873Z,18.15
2019-05-31T06:24:38.466Z,18.2
2019-05-31T06:25:19.033Z,18.19
2019-05-31T06:25:59.667Z,18.18
2019-05-31T06:26:40.335Z,18.23
2019-05-31T06:27:20.957Z,18.23
2019-05-31T06:28:01.575Z,18.22
2019-05-31T06:28:42.175Z,18.29
2019-05-31T06:29:22.800Z,18.28
2019-05-31T06:30:03.406Z,18.29
2019-05-31T06:30:43.994Z,18.35
2019-05-31T06:31:24.793Z,18.28
2019-05-31T06:32:05.173Z,18.28
2019-05-31T06:32:45.775Z,18.34
2019-05-31T06:33:27.676Z,18.34
2019-05-31T06:34:07.008Z,18.34
2019-05-31T06:34:47.597Z,18.25
2019-05-31T06:35:28.847Z,18.25
2019-05-31T06:36:08.864Z,18.28
2019-05-31T06:36:49.512Z,18.37
2019-05-31T06:37:30.865Z,18.4
2019-05-31T06:38:10.754Z,18.38
2019-05-31T06:38:51.345Z,18.41
2019-05-31T06:39:33.109Z,18.41
2019-05-31T06:40:12.543Z,18.44
2019-05-31T06:40:53.128Z,18.49
2019-05-31T06:41:33.700Z,18.52
2019-05-31T06:42:14.303Z,18.49
2019-05-31T06:42:54.915Z,18.58
2019-05-31T06:43:37.294Z,18.53
2019-05-31T06:44:16.143Z,18.65
2019-05-31T06:44:56.745Z,18.63
2019-05-31T06:45:37.333Z,18.65
2019-05-31T06:46:17.934Z,18.65
2019-05-31T06:46:58.527Z,18.62
2019-05-31T06:47:39.146Z,18.73
2019-05-31T06:48:19.947Z,18.74
2019-05-31T06:49:00.315Z,18.77
2019-05-31T06:49:40.873Z,18.73
2019-05-31T06:50:21.475Z,18.86
2019-05-31T06:51:02.052Z,18.74
2019-05-31T06:51:42.646Z,18.9
2019-05-31T06:52:23.250Z,18.84
2019-05-31T06:53:03.829Z,18.96
2019-05-31T06:53:44.410Z,18.95
2019-05-31T06:54:25.787Z,18.93
2019-05-31T06:55:05.587Z,19
2019-05-31T06:55:46.147Z,18.99
2019-05-31T06:56:27.550Z,19
2019-05-31T06:57:07.347Z,19.04
2019-05-31T06:57:47.906Z,19.14
2019-05-31T06:58:28.534Z,19.16
2019-05-31T06:59:09.098Z,19.12
2019-05-31T06:59:49.667Z,19.15
2019-05-31T07:00:31.668Z,19.24
2019-05-31T07:01:10.892Z,19.26
2019-05-31T07:01:51.534Z,19.3
2019-05-31T07:02:32.321Z,19.29
2019-05-31T07:03:12.816Z,19.44
2019-05-31T07:03:53.401Z,19.59
2019-05-31T07:04:34.914Z,19.66
2019-05-31T07:05:14.628Z,19.71
2019-05-31T07:05:56.913Z,19.88
2019-05-31T07:06:36.854Z,20.04
2019-05-31T07:07:16.390Z,20.13
2019-05-31T07:07:56.993Z,20.31
2019-05-31T07:08:37.572Z,20.44
2019-05-31T07:09:18.146Z,20.63
2019-05-31T07:09:58.726Z,20.93
2019-05-31T07:10:39.310Z,21.09
2019-05-31T07:11:19.906Z,21.15
2019-05-31T07:12:16.102Z,21.25
2019-05-31T07:12:41.134Z,21.39
2019-05-31T07:13:22.298Z,21.42
2019-05-31T07:14:02.311Z,21.52
2019-05-31T07:14:42.889Z,21.5
2019-05-31T07:15:25.866Z,21.51
2019-05-31T07:16:04.085Z,21.66
2019-05-31T07:16:44.714Z,21.7
2019-05-31T07:17:25.260Z,21.77
2019-05-31T07:18:05.852Z,21.77
2019-05-31T07:18:46.452Z,21.76
2019-05-31T07:19:28.089Z,21.88
2019-05-31T07:20:07.968Z,21.98
2019-05-31T07:20:48.219Z,22.08
2019-05-31T07:21:28.883Z,22.08
2019-05-31T07:22:09.401Z,22.18
2019-05-31T07:22:50.033Z,22.26
2019-05-31T07:23:33.765Z,22.35
2019-05-31T07:24:11.229Z,22.41
2019-05-31T07:24:51.786Z,22.39
2019-05-31T07:25:32.774Z,22.53
2019-05-31T07:26:12.996Z,22.53
2019-05-31T07:27:00.470Z,22.65
2019-05-31T07:27:35.078Z,22.68
2019-05-31T07:28:14.790Z,22.73
2019-05-31T07:28:55.421Z,22.8
2019-05-31T07:29:40.220Z,22.85
2019-05-31T07:30:16.649Z,22.85
2019-05-31T07:30:57.240Z,22.8
2019-05-31T07:31:40.113Z,22.59
2019-05-31T07:32:18.473Z,22.68
2019-05-31T07:32:59.083Z,22.59
2019-05-31T07:33:40.250Z,22.65
2019-05-31T07:34:20.287Z,22.6
2019-05-31T07:35:00.878Z,22.66
2019-05-31T07:35:41.486Z,22.68
2019-05-31T07:36:22.097Z,22.75
2019-05-31T07:37:02.647Z,22.76
2019-05-31T07:37:43.245Z,22.8
2019-05-31T07:38:23.844Z,22.85
2019-05-31T07:41:38.999Z,22.96
2019-05-31T07:42:18.361Z,22.96
2019-05-31T07:42:58.925Z,23.03
2019-05-31T07:43:39.613Z,23.17
2019-05-31T07:44:20.126Z,23.18
2019-05-31T07:47:34.073Z,23.44
2019-05-31T07:48:14.677Z,23.51
2019-05-31T07:49:06.662Z,23.55
2019-05-31T07:49:36.042Z,23.65
2019-05-31T07:50:16.400Z,23.61
2019-05-31T07:50:56.993Z,23.62
2019-05-31T07:51:38.491Z,23.59
2019-05-31T07:52:24.282Z,23.62
2019-05-31T07:52:58.749Z,23.71
2019-05-31T07:53:39.322Z,23.66
2019-05-31T07:54:21.671Z,23.78
2019-05-31T07:55:00.508Z,23.83
2019-05-31T07:55:41.114Z,23.98
2019-05-31T07:56:21.679Z,24.05
2019-05-31T07:57:02.264Z,24.13
2019-05-31T07:57:42.897Z,24.11
2019-05-31T07:58:24.077Z,24.01
2019-05-31T07:59:04.247Z,24.03
2019-05-31T07:59:44.860Z,24.02
2019-05-31T08:00:26.956Z,23.93
2019-05-31T08:01:06.070Z,23.95
2019-05-31T08:01:46.683Z,23.93
2019-05-31T08:02:28.552Z,23.83
2019-05-31T08:03:07.825Z,23.87
2019-05-31T08:03:48.533Z,23.86
2019-05-31T08:04:29.128Z,23.87
2019-05-31T08:05:09.774Z,23.83
2019-05-31T08:05:50.384Z,23.95
2019-05-31T08:06:34.302Z,23.95
2019-05-31T08:07:11.598Z,23.96
2019-05-31T08:07:52.190Z,24.08
2019-05-31T08:08:36.077Z,24.1
2019-05-31T08:09:13.534Z,24.1
2019-05-31T08:09:54.244Z,24.1
2019-05-31T08:10:35.410Z,24.03
2019-05-31T08:11:15.562Z,23.93
2019-05-31T08:11:56.166Z,23.92
2019-05-31T08:12:36.790Z,23.8
2019-05-31T08:13:17.475Z,23.8
2019-05-31T08:13:58.011Z,23.59
2019-05-31T08:14:38.623Z,23.56
2019-05-31T08:15:19.199Z,23.54
2019-05-31T08:15:59.787Z,23.43
2019-05-31T08:16:56.376Z,23.34
2019-05-31T08:17:21.080Z,23.24
2019-05-31T08:18:01.643Z,23.21
2019-05-31T08:18:42.224Z,23.15
2019-05-31T08:19:22.831Z,23.1
2019-05-31T08:20:03.411Z,23
2019-05-31T08:20:44.053Z,22.99
2019-05-31T08:21:28.448Z,23
2019-05-31T08:22:05.480Z,22.96
2019-05-31T08:22:45.997Z,22.91
2019-05-31T08:23:28.548Z,22.94
2019-05-31T08:24:17.019Z,23.02
2019-05-31T08:24:47.894Z,22.99
2019-05-31T08:25:28.514Z,23.05
2019-05-31T08:26:25.156Z,23.05
2019-05-31T08:26:49.670Z,23.1
2019-05-31T08:27:30.259Z,23.18
2019-05-31T08:28:10.858Z,23.23
2019-05-31T08:28:51.475Z,23.34
2019-05-31T08:29:32.384Z,23.41
2019-05-31T08:30:12.688Z,23.47
2019-05-31T08:30:53.282Z,23.44
2019-05-31T08:31:35.074Z,23.5
2019-05-31T08:32:14.480Z,23.5
2019-05-31T08:32:55.092Z,23.47
2019-05-31T08:33:36.631Z,23.51
2019-05-31T08:34:16.293Z,23.43
2019-05-31T08:34:56.878Z,23.41
2019-05-31T08:35:37.481Z,23.31
2019-05-31T08:36:18.074Z,23.36
2019-05-31T08:37:03.270Z,23.24
2019-05-31T08:37:39.276Z,23.24
2019-05-31T08:38:19.889Z,23.17
2019-05-31T08:39:00.508Z,23.18
2019-05-31T08:39:41.106Z,23.09
2019-05-31T08:40:21.699Z,23.09
2019-05-31T08:41:02.360Z,23.05
2019-05-31T08:41:42.943Z,22.93
2019-05-31T08:42:23.540Z,22.87
2019-05-31T08:43:04.194Z,22.84
2019-05-31T08:43:44.771Z,22.8
2019-05-31T08:44:26.649Z,22.88
2019-05-31T08:45:07.234Z,22.75
2019-05-31T08:45:46.577Z,22.81
2019-05-31T08:46:27.232Z,22.78
2019-05-31T08:47:07.820Z,22.81
2019-05-31T08:47:48.423Z,22.73
2019-05-31T08:48:29.276Z,22.76
2019-05-31T08:49:09.645Z,22.75
2019-05-31T08:49:50.394Z,22.81
2019-05-31T08:50:31.153Z,22.81
2019-05-31T08:51:11.541Z,22.75
2019-05-31T08:51:52.141Z,22.84
2019-05-31T08:52:39.079Z,22.85
2019-05-31T08:53:13.398Z,22.85
2019-05-31T08:53:54.253Z,22.98
2019-05-31T08:54:35.374Z,22.9
2019-05-31T08:55:15.449Z,22.88
2019-05-31T08:55:56.040Z,22.9
2019-05-31T08:56:37.788Z,22.83
2019-05-31T08:57:17.223Z,22.83
2019-05-31T08:57:57.845Z,22.7
2019-05-31T08:58:38.459Z,22.72
2019-05-31T08:59:19.072Z,22.63